TimeCST,TemperatureF,Dew PointF,Humidity,Sea Level PressureIn,VisibilityMPH,Wind Direction,Wind SpeedMPH,Gust SpeedMPH,PrecipitationIn,Events,Conditions,WindDirDegrees,DateUTC
12:18 AM,39.2,30.2,70,29.49,10.0,WSW,16.1,24.2,N/A,,Overcast,240,2013-02-11 06:18:00
12:54 AM,37.9,30.0,73,29.51,10.0,SW,21.9,33.4,N/A,,Overcast,230,2013-02-11 06:54:00
1:54 AM,36.0,28.9,76,29.54,10.0,WSW,25.3,38.0,0.00,,Overcast,240,2013-02-11 07:54:00
2:54 AM,35.1,27.0,72,29.54,10.0,WSW,28.8,48.3,N/A,,Overcast,240,2013-02-11 08:54:00
3:54 AM,34.0,26.1,73,29.55,10.0,WSW,25.3,41.4,0.00,Snow,Light Snow,240,2013-02-11 09:54:00
4:54 AM,34.0,25.0,70,29.58,9.0,WSW,21.9,33.4,0.00,Snow,Light Snow,250,2013-02-11 10:54:00
5:54 AM,33.1,25.0,72,29.60,10.0,WSW,23.0,35.7,0.00,,Overcast,250,2013-02-11 11:54:00
6:54 AM,33.1,25.0,72,29.62,10.0,WSW,20.7,33.4,N/A,,Overcast,250,2013-02-11 12:54:00
7:54 AM,33.1,24.1,70,29.65,10.0,West,20.7,34.5,N/A,,Overcast,260,2013-02-11 13:54:00
8:20 AM,32.0,24.8,75,29.65,2.5,West,24.2,35.7,0.00,Snow,Light Snow,260,2013-02-11 14:20:00
8:28 AM,30.2,26.6,86,29.65,1.5,West,23.0,39.1,0.00,Snow,Light Snow,260,2013-02-11 14:28:00
8:45 AM,30.2,26.6,86,29.67,1.0,West,25.3,36.8,0.00,Snow,Light Snow,270,2013-02-11 14:45:00
8:54 AM,30.9,26.1,82,29.69,1.0,West,23.0,38.0,0.00,Snow,Light Snow,260,2013-02-11 14:54:00
8:57 AM,30.2,26.6,86,29.67,3.0,West,24.2,38.0,0.00,Snow,Light Snow,260,2013-02-11 14:57:00
9:18 AM,30.2,26.6,86,29.68,1.5,West,19.6,34.5,0.00,Snow,Light Snow,260,2013-02-11 15:18:00
9:27 AM,30.2,26.6,86,29.69,2.0,West,26.5,34.5,0.00,Snow,Light Snow,260,2013-02-11 15:27:00
9:54 AM,32.0,25.0,75,29.72,2.0,West,17.3,31.1,0.00,Snow,Light Snow,270,2013-02-11 15:54:00
10:02 AM,32.0,24.8,75,29.71,10.0,West,23.0,35.7,0.00,,Overcast,260,2013-02-11 16:02:00
10:54 AM,32.0,24.1,73,29.75,10.0,West,21.9,32.2,0.00,,Overcast,270,2013-02-11 16:54:00
11:54 AM,32.0,24.1,73,29.79,10.0,West,20.7,28.8,N/A,,Overcast,270,2013-02-11 17:54:00
12:54 PM,30.9,23.0,72,29.82,10.0,West,23.0,40.3,N/A,,Overcast,270,2013-02-11 18:54:00
1:54 PM,30.9,21.9,69,29.85,10.0,West,21.9,33.4,N/A,,Overcast,280,2013-02-11 19:54:00
2:54 PM,30.0,21.9,72,29.87,10.0,West,19.6,32.2,N/A,,Overcast,270,2013-02-11 20:54:00
3:54 PM,30.9,21.0,67,29.91,10.0,West,21.9,31.1,N/A,,Overcast,280,2013-02-11 21:54:00
4:54 PM,30.0,19.9,66,29.93,10.0,WNW,24.2,35.7,N/A,,Overcast,290,2013-02-11 22:54:00
5:54 PM,30.0,21.0,69,29.97,10.0,West,17.3,26.5,N/A,,Overcast,280,2013-02-11 23:54:00
6:54 PM,28.9,19.9,69,30.00,10.0,WNW,18.4,28.8,N/A,,Overcast,290,2013-02-12 00:54:00
7:54 PM,28.9,19.9,69,30.02,10.0,West,15.0,25.3,N/A,,Overcast,280,2013-02-12 01:54:00
8:54 PM,28.0,19.9,72,30.03,10.0,WNW,12.7,-,N/A,,Overcast,290,2013-02-12 02:54:00
9:54 PM,28.0,19.9,72,30.04,10.0,West,16.1,-,N/A,,Overcast,280,2013-02-12 03:54:00
10:54 PM,27.0,19.0,72,30.06,10.0,WNW,17.3,23.0,N/A,,Overcast,300,2013-02-12 04:54:00
11:54 PM,27.0,19.0,72,30.08,10.0,WNW,13.8,-,N/A,,Overcast,290,2013-02-12 05:54:00